createdAt,value
2023-02-09T00:01:33.730Z,-5.63
2023-02-09T00:04:03.618Z,-5.68
2023-02-09T00:06:31.709Z,-5.76
2023-02-09T00:08:59.636Z,-6.04
2023-02-09T00:11:43.115Z,-6.05
2023-02-09T00:14:11.381Z,-6.00
2023-02-09T00:16:39.401Z,-6.26
2023-02-09T00:19:08.734Z,-6.31
2023-02-09T00:21:36.789Z,-6.51
2023-02-09T00:24:05.359Z,-6.67
2023-02-09T00:26:33.504Z,-6.41
2023-02-09T00:29:01.552Z,-6.56
2023-02-09T00:31:29.638Z,-6.81
2023-02-09T00:33:57.557Z,-6.91
2023-02-09T00:36:26.895Z,-6.88
2023-02-09T00:38:55.060Z,-6.90
2023-02-09T00:41:42.992Z,-7.06
2023-02-09T00:44:11.921Z,-7.20
2023-02-09T00:46:39.812Z,-6.88
2023-02-09T00:49:07.912Z,-7.01
2023-02-09T00:51:37.505Z,-6.97
2023-02-09T00:54:05.520Z,-6.86
2023-02-09T00:56:33.480Z,-7.10
2023-02-09T00:59:01.562Z,-7.22
2023-02-09T01:01:29.712Z,-7.34
2023-02-09T01:03:58.115Z,-7.41
2023-02-09T01:06:26.181Z,-7.51
2023-02-09T01:08:55.464Z,-7.61
2023-02-09T01:11:28.014Z,-7.69
2023-02-09T01:13:57.063Z,-7.72
2023-02-09T01:16:25.702Z,-7.77
2023-02-09T01:18:53.640Z,-7.87
2023-02-09T01:21:22.977Z,-7.89
2023-02-09T01:23:51.525Z,-7.94
2023-02-09T01:26:20.934Z,-7.81
2023-02-09T01:28:50.544Z,-7.65
2023-02-09T01:31:25.122Z,-7.48
2023-02-09T01:33:54.005Z,-7.67
2023-02-09T01:36:22.165Z,-7.78
2023-02-09T01:38:50.387Z,-7.83
2023-02-09T01:41:18.932Z,-8.00
2023-02-09T01:44:00.815Z,-8.09
2023-02-09T01:46:30.151Z,-8.13
2023-02-09T01:49:03.723Z,-7.92
2023-02-09T01:51:33.172Z,-7.77
2023-02-09T01:54:01.244Z,-7.78
2023-02-09T01:56:31.259Z,-7.70
2023-02-09T01:59:01.032Z,-7.78
2023-02-09T02:01:28.993Z,-7.60
2023-02-09T02:03:57.087Z,-7.75
2023-02-09T02:06:25.013Z,-7.82
2023-02-09T02:08:56.188Z,-7.88
2023-02-09T02:11:27.658Z,-7.89
2023-02-09T02:13:55.595Z,-7.99
2023-02-09T02:16:41.809Z,-7.85
2023-02-09T02:19:29.391Z,-8.18
2023-02-09T02:22:36.876Z,-8.33
2023-02-09T02:25:35.307Z,-8.21
2023-02-09T02:28:26.356Z,-8.36
2023-02-09T02:31:07.613Z,-8.42
2023-02-09T02:33:41.549Z,-8.39
2023-02-09T02:36:13.732Z,-8.46
2023-02-09T02:38:45.510Z,-8.48
2023-02-09T02:41:16.730Z,-8.34
2023-02-09T02:43:52.715Z,-8.37
2023-02-09T02:46:27.394Z,-8.43
2023-02-09T02:48:59.207Z,-8.29
2023-02-09T02:51:30.195Z,-8.59
2023-02-09T02:54:01.740Z,-8.60
2023-02-09T02:56:31.857Z,-8.75
2023-02-09T02:59:00.810Z,-8.65
2023-02-09T03:01:32.336Z,-8.41
2023-02-09T03:04:02.415Z,-8.50
2023-02-09T03:06:31.480Z,-8.42
2023-02-09T03:08:59.466Z,-8.33
2023-02-09T03:11:32.229Z,-8.21
2023-02-09T03:14:29.259Z,-8.38
2023-02-09T03:17:03.836Z,-8.62
2023-02-09T03:19:37.691Z,-8.80
2023-02-09T03:22:08.676Z,-8.69
2023-02-09T03:24:38.430Z,-8.46
2023-02-09T03:27:14.807Z,-8.72
2023-02-09T03:29:44.863Z,-8.67
2023-02-09T03:32:12.913Z,-8.62
2023-02-09T03:34:42.238Z,-8.49
2023-02-09T03:37:10.257Z,-8.57
2023-02-09T03:39:38.220Z,-8.87
2023-02-09T03:42:06.624Z,-8.85
2023-02-09T03:44:34.476Z,-8.66
2023-02-09T03:47:03.736Z,-8.84
2023-02-09T03:49:34.801Z,-8.58
2023-02-09T03:52:04.744Z,-8.79
2023-02-09T03:54:33.673Z,-9.04
2023-02-09T03:57:02.417Z,-9.06
2023-02-09T03:59:30.333Z,-8.86
2023-02-09T04:01:59.672Z,-8.83
2023-02-09T04:04:27.666Z,-9.04
2023-02-09T04:06:56.173Z,-9.15
2023-02-09T04:09:25.621Z,-9.29
2023-02-09T04:11:53.724Z,-9.27
2023-02-09T04:14:21.936Z,-9.37
2023-02-09T04:16:49.855Z,-9.41
2023-02-09T04:19:17.894Z,-9.64
2023-02-09T04:21:45.787Z,-9.42
2023-02-09T04:24:13.687Z,-9.23
2023-02-09T04:26:42.953Z,-9.21
2023-02-09T04:29:10.921Z,-9.28
2023-02-09T04:31:38.872Z,-9.40
2023-02-09T04:34:06.780Z,-9.23
2023-02-09T04:36:34.699Z,-9.40
2023-02-09T04:39:02.689Z,-9.27
2023-02-09T04:41:30.634Z,-9.07
2023-02-09T04:43:59.969Z,-9.10
2023-02-09T04:46:27.883Z,-9.36
2023-02-09T04:48:55.827Z,-9.48
2023-02-09T04:51:23.766Z,-9.43
2023-02-09T04:53:51.705Z,-9.32
2023-02-09T04:56:19.582Z,-9.42
2023-02-09T04:59:04.818Z,-9.55
2023-02-09T05:01:34.150Z,-9.56
2023-02-09T05:04:02.086Z,-9.47
2023-02-09T05:06:30.387Z,-9.52
2023-02-09T05:08:58.307Z,-9.60
2023-02-09T05:11:26.182Z,-9.53
2023-02-09T05:13:54.074Z,-9.64
2023-02-09T05:16:21.997Z,-9.47
2023-02-09T05:18:51.568Z,-9.48
2023-02-09T05:21:19.618Z,-9.67
2023-02-09T05:23:47.648Z,-9.66
2023-02-09T05:26:15.555Z,-9.56
2023-02-09T05:28:43.484Z,-9.52
2023-02-09T05:31:11.422Z,-9.73
2023-02-09T05:33:39.370Z,-9.77
2023-02-09T05:36:12.269Z,-9.89
2023-02-09T05:38:40.667Z,-9.93
2023-02-09T05:41:10.042Z,-9.97
2023-02-09T05:43:38.579Z,-9.92
2023-02-09T05:46:08.398Z,-9.78
2023-02-09T05:48:36.570Z,-9.82
2023-02-09T05:51:04.540Z,-9.58
2023-02-09T05:53:33.804Z,-9.66
2023-02-09T05:56:01.684Z,-9.55
2023-02-09T05:58:29.580Z,-9.59
2023-02-09T06:00:57.458Z,-9.82
2023-02-09T06:03:25.384Z,-9.83
2023-02-09T06:05:53.470Z,-9.94
2023-02-09T06:08:21.363Z,-10.01
2023-02-09T06:10:50.622Z,-10.01
2023-02-09T06:13:18.520Z,-9.99
2023-02-09T06:15:46.505Z,-9.99
2023-02-09T06:18:14.438Z,-10.07
2023-02-09T06:20:42.343Z,-10.14
2023-02-09T06:23:10.315Z,-10.09
2023-02-09T06:25:39.967Z,-10.07
2023-02-09T06:28:09.238Z,-10.03
2023-02-09T06:30:37.493Z,-10.01
2023-02-09T06:33:05.534Z,-9.74
2023-02-09T06:35:33.444Z,-9.79
2023-02-09T06:38:01.324Z,-9.94
2023-02-09T06:40:29.825Z,-10.01
2023-02-09T06:42:58.109Z,-10.06
2023-02-09T06:45:27.423Z,-9.97
2023-02-09T06:47:55.412Z,-9.94
2023-02-09T06:50:23.509Z,-9.97
2023-02-09T06:52:51.619Z,-9.89
2023-02-09T06:55:19.648Z,-9.87
2023-02-09T06:57:47.556Z,-9.66
2023-02-09T07:00:16.468Z,-9.68
2023-02-09T07:02:46.521Z,-9.33
2023-02-09T07:05:16.086Z,-9.38
2023-02-09T07:07:44.234Z,-9.44
2023-02-09T07:10:13.711Z,-9.40
2023-02-09T07:12:43.418Z,-9.11
2023-02-09T07:15:12.483Z,-8.99
2023-02-09T07:17:40.885Z,-9.00
2023-02-09T07:20:11.400Z,-8.84
2023-02-09T07:22:39.375Z,-8.72
2023-02-09T07:25:07.651Z,-8.62
2023-02-09T07:27:35.955Z,-8.22
2023-02-09T07:30:03.849Z,-8.11
2023-02-09T07:32:31.752Z,-7.81
2023-02-09T07:34:59.836Z,-7.59
2023-02-09T07:37:29.139Z,-7.49
2023-02-09T07:39:57.231Z,-7.46
2023-02-09T07:42:25.124Z,-7.33
2023-02-09T07:44:53.022Z,-7.15
2023-02-09T07:47:20.928Z,-7.07
2023-02-09T07:49:48.887Z,-7.05
2023-02-09T07:52:16.821Z,-6.95
2023-02-09T07:54:46.100Z,-6.57
2023-02-09T07:57:14.579Z,-6.55
2023-02-09T07:59:42.480Z,-6.35
2023-02-09T08:02:18.529Z,-6.02
2023-02-09T08:04:46.478Z,-5.95
2023-02-09T08:07:14.512Z,-5.71
2023-02-09T08:09:45.051Z,-5.52
2023-02-09T08:12:14.665Z,-5.29
2023-02-09T08:14:48.152Z,-5.13
2023-02-09T08:17:21.381Z,-5.10
2023-02-09T08:19:52.429Z,-4.86
2023-02-09T08:22:20.592Z,-4.80
2023-02-09T08:24:49.171Z,-4.83
2023-02-09T08:27:18.439Z,-4.56
2023-02-09T08:29:48.615Z,-4.28
2023-02-09T08:32:16.961Z,-4.08
2023-02-09T08:34:44.912Z,-3.87
2023-02-09T08:37:12.799Z,-4.06
2023-02-09T08:39:40.697Z,-3.97
2023-02-09T08:42:08.652Z,-3.88
2023-02-09T08:44:38.055Z,-3.65
2023-02-09T08:47:06.286Z,-3.50
2023-02-09T08:49:34.266Z,-3.18
2023-02-09T08:52:02.399Z,-3.03
2023-02-09T08:54:30.316Z,-2.90
2023-02-09T08:56:58.191Z,-2.78
2023-02-09T08:59:26.253Z,-2.72
2023-02-09T09:01:55.523Z,-2.51
2023-02-09T09:04:23.471Z,-2.43
2023-02-09T09:06:51.471Z,-2.07
2023-02-09T09:09:19.449Z,-2.09
2023-02-09T09:11:47.392Z,-2.07
2023-02-09T09:14:15.308Z,-1.86
2023-02-09T09:16:43.237Z,-1.78
2023-02-09T09:19:12.516Z,-1.53
2023-02-09T09:21:40.412Z,-1.68
2023-02-09T09:24:08.356Z,-2.14
2023-02-09T09:26:36.492Z,-1.71
2023-02-09T09:29:04.849Z,-1.23
2023-02-09T09:31:33.612Z,-1.00
2023-02-09T09:34:01.617Z,-0.79
2023-02-09T09:36:30.989Z,-0.77
2023-02-09T09:38:59.484Z,-0.46
2023-02-09T09:41:31.638Z,-0.27
2023-02-09T09:44:00.118Z,-0.10
2023-02-09T09:46:34.807Z,0.03
2023-02-09T09:49:02.869Z,0.16
2023-02-09T09:51:37.625Z,0.56
2023-02-09T09:54:07.711Z,0.90
2023-02-09T09:56:35.599Z,0.89
2023-02-09T09:59:03.633Z,1.10
2023-02-09T10:01:32.904Z,1.17
2023-02-09T10:04:02.537Z,1.14
2023-02-09T10:06:35.219Z,0.71
2023-02-09T10:09:06.167Z,0.84
2023-02-09T10:11:39.043Z,1.09
2023-02-09T10:14:06.986Z,0.92
2023-02-09T10:16:38.225Z,0.54
2023-02-09T10:19:08.872Z,0.85
2023-02-09T10:21:37.626Z,1.07
2023-02-09T10:24:13.184Z,0.78
2023-02-09T10:26:42.885Z,0.83
2023-02-09T10:29:24.425Z,0.97
2023-02-09T10:31:55.948Z,1.35
2023-02-09T10:34:28.481Z,1.35
2023-02-09T10:36:57.305Z,1.31
2023-02-09T10:39:29.327Z,1.12
2023-02-09T10:42:17.214Z,1.23
2023-02-09T10:44:49.613Z,1.27
2023-02-09T10:47:28.948Z,1.45
2023-02-09T10:50:01.161Z,1.79
2023-02-09T10:52:33.814Z,1.68
2023-02-09T10:55:06.626Z,1.73
2023-02-09T10:57:37.533Z,1.64
2023-02-09T11:00:27.045Z,1.93
2023-02-09T11:02:57.636Z,2.12
2023-02-09T11:05:31.911Z,2.29
2023-02-09T11:08:04.780Z,2.12
2023-02-09T11:10:37.883Z,1.79
2023-02-09T11:13:19.075Z,1.72
2023-02-09T11:15:57.851Z,2.06
2023-02-09T11:18:27.476Z,2.53
2023-02-09T11:20:59.467Z,2.74
2023-02-09T11:23:37.567Z,2.74
2023-02-09T11:26:11.715Z,2.90
2023-02-09T11:28:47.110Z,2.66
2023-02-09T11:31:25.784Z,2.48
2023-02-09T11:34:01.779Z,2.57
2023-02-09T11:36:42.309Z,2.76
2023-02-09T11:39:15.020Z,3.32
2023-02-09T11:42:04.509Z,3.19
2023-02-09T11:44:37.265Z,2.75
2023-02-09T11:47:07.428Z,2.56
2023-02-09T11:49:44.287Z,2.64
2023-02-09T11:52:15.455Z,2.76
2023-02-09T11:54:47.551Z,2.80
2023-02-09T11:57:22.555Z,2.65
2023-02-09T11:59:57.069Z,2.66
2023-02-09T12:02:39.864Z,2.80
2023-02-09T12:05:12.352Z,2.60
2023-02-09T12:07:44.852Z,2.59
2023-02-09T12:10:20.035Z,2.85
2023-02-09T12:12:53.120Z,2.65
2023-02-09T12:15:22.775Z,2.87
2023-02-09T12:17:54.922Z,3.00
2023-02-09T12:20:30.471Z,3.33
2023-02-09T12:23:02.272Z,3.52
2023-02-09T12:26:00.716Z,3.27
2023-02-09T12:28:48.429Z,3.04
2023-02-09T12:31:22.222Z,3.47
2023-02-09T12:34:24.985Z,3.39
2023-02-09T12:37:18.051Z,3.50
2023-02-09T12:40:18.913Z,3.73
2023-02-09T12:42:47.619Z,4.11
2023-02-09T12:45:34.566Z,3.71
2023-02-09T12:48:11.612Z,3.70
2023-02-09T12:50:48.708Z,3.66
2023-02-09T12:53:47.111Z,3.61
2023-02-09T12:56:28.182Z,3.82
2023-02-09T12:59:03.627Z,3.95
2023-02-09T13:02:11.086Z,4.18
2023-02-09T13:04:42.491Z,3.82
2023-02-09T13:07:17.602Z,3.73
2023-02-09T13:09:46.292Z,3.91
2023-02-09T13:12:17.049Z,3.64
2023-02-09T13:14:48.660Z,3.70
2023-02-09T13:17:38.247Z,3.74
2023-02-09T13:20:33.165Z,3.59
2023-02-09T13:23:14.596Z,3.87
2023-02-09T13:25:44.261Z,4.05
2023-02-09T13:28:16.860Z,3.83
2023-02-09T13:30:45.160Z,4.01
2023-02-09T13:33:30.916Z,4.16
2023-02-09T13:36:16.205Z,4.01
2023-02-09T13:38:51.036Z,3.93
2023-02-09T13:41:28.063Z,4.03
2023-02-09T13:43:55.991Z,3.77
2023-02-09T13:46:28.840Z,3.86
2023-02-09T13:49:11.000Z,4.26
2023-02-09T13:51:39.027Z,4.77
2023-02-09T13:54:07.168Z,4.29
2023-02-09T13:56:36.054Z,3.98
2023-02-09T13:59:04.068Z,4.10
2023-02-09T14:01:35.492Z,4.23
2023-02-09T14:04:07.976Z,4.44
2023-02-09T14:06:39.650Z,4.05
2023-02-09T14:09:12.746Z,4.21
2023-02-09T14:11:43.308Z,4.21
2023-02-09T14:14:14.415Z,3.94
2023-02-09T14:16:53.009Z,4.25
2023-02-09T14:19:27.617Z,4.17
2023-02-09T14:21:55.555Z,3.93
2023-02-09T14:24:23.998Z,3.80
2023-02-09T14:26:54.981Z,3.92
2023-02-09T14:29:25.427Z,4.01
2023-02-09T14:31:55.481Z,3.86
2023-02-09T14:34:29.028Z,4.14
2023-02-09T14:36:58.716Z,4.11
2023-02-09T14:39:28.052Z,3.97
2023-02-09T14:41:58.076Z,3.98
2023-02-09T14:44:26.086Z,4.00
2023-02-09T14:46:55.348Z,4.11
2023-02-09T14:49:23.917Z,4.10
2023-02-09T14:52:02.697Z,4.24
2023-02-09T14:54:32.466Z,4.25
2023-02-09T14:57:03.657Z,4.08
2023-02-09T14:59:32.053Z,3.92
2023-02-09T15:02:00.039Z,3.66
2023-02-09T15:04:27.929Z,3.58
2023-02-09T15:07:04.076Z,3.44
2023-02-09T15:09:36.418Z,3.40
2023-02-09T15:12:07.804Z,3.30
2023-02-09T15:14:41.445Z,3.18
2023-02-09T15:17:18.151Z,3.04
2023-02-09T15:19:46.204Z,3.03
2023-02-09T15:22:16.260Z,3.05
2023-02-09T15:24:45.522Z,3.00
2023-02-09T15:27:22.588Z,2.75
2023-02-09T15:29:50.514Z,2.76
2023-02-09T15:32:19.734Z,2.74
2023-02-09T15:34:47.978Z,2.49
2023-02-09T15:37:22.251Z,2.27
2023-02-09T15:39:50.639Z,2.19
2023-02-09T15:42:37.241Z,2.26
2023-02-09T15:45:49.387Z,2.17
2023-02-09T15:48:17.340Z,1.83
2023-02-09T15:50:46.934Z,1.71
2023-02-09T15:53:18.684Z,1.39
2023-02-09T15:55:47.012Z,1.20
2023-02-09T15:58:16.647Z,0.85
2023-02-09T16:00:44.947Z,0.69
2023-02-09T16:03:16.086Z,0.50
2023-02-09T16:05:44.146Z,0.39
2023-02-09T16:08:20.197Z,0.21
2023-02-09T16:10:48.689Z,0.03
2023-02-09T16:13:17.542Z,-0.07
2023-02-09T16:15:45.516Z,-0.19
2023-02-09T16:18:13.461Z,-0.43
2023-02-09T16:20:46.832Z,-0.74
2023-02-09T16:23:20.815Z,-0.90
2023-02-09T16:25:52.130Z,-0.93
2023-02-09T16:28:20.529Z,-1.06
2023-02-09T16:30:50.998Z,-0.78
2023-02-09T16:33:19.433Z,-1.24
2023-02-09T16:35:50.478Z,-1.44
2023-02-09T16:38:19.892Z,-1.15
2023-02-09T16:40:47.777Z,-1.23
2023-02-09T16:43:17.660Z,-1.56
2023-02-09T16:46:01.122Z,-1.81
2023-02-09T16:48:32.061Z,-1.98
2023-02-09T16:51:00.116Z,-1.76
2023-02-09T16:53:32.893Z,-1.62
2023-02-09T16:56:01.973Z,-1.85
2023-02-09T16:58:31.263Z,-2.01
2023-02-09T17:00:59.238Z,-1.94
2023-02-09T17:03:32.876Z,-2.01
2023-02-09T17:06:02.286Z,-1.91
2023-02-09T17:08:32.100Z,-1.88
2023-02-09T17:11:00.973Z,-2.05
2023-02-09T17:13:29.439Z,-2.08
2023-02-09T17:16:00.991Z,-2.04
2023-02-09T17:18:30.985Z,-2.12
2023-02-09T17:21:01.608Z,-2.40
2023-02-09T17:23:30.988Z,-2.77
2023-02-09T17:25:59.826Z,-2.91
2023-02-09T17:28:28.755Z,-3.13
2023-02-09T17:30:59.979Z,-3.12
2023-02-09T17:33:29.655Z,-3.20
2023-02-09T17:36:24.709Z,-3.26
2023-02-09T17:38:46.757Z,-3.29
2023-02-09T17:41:16.536Z,-3.41
2023-02-09T17:43:44.608Z,-3.38
2023-02-09T17:46:15.968Z,-3.32
2023-02-09T17:48:43.979Z,-3.40
2023-02-09T17:51:19.130Z,-3.42
2023-02-09T17:53:47.238Z,-3.58
2023-02-09T17:56:16.630Z,-3.52
2023-02-09T17:58:45.285Z,-3.56
2023-02-09T18:01:25.294Z,-3.75
2023-02-09T18:03:54.441Z,-3.66
2023-02-09T18:06:24.308Z,-3.85
2023-02-09T18:08:52.217Z,-3.95
2023-02-09T18:11:20.135Z,-4.01
2023-02-09T18:13:48.013Z,-4.18
2023-02-09T18:16:16.010Z,-4.32
2023-02-09T18:18:46.810Z,-4.36
2023-02-09T18:21:15.425Z,-4.47
2023-02-09T18:23:43.562Z,-4.47
2023-02-09T18:26:11.469Z,-4.52
2023-02-09T18:28:39.348Z,-4.59
2023-02-09T18:31:08.300Z,-4.60
2023-02-09T18:33:38.208Z,-4.63
2023-02-09T18:36:08.623Z,-4.72
2023-02-09T18:38:36.832Z,-4.76
2023-02-09T18:41:04.849Z,-4.82
2023-02-09T18:43:32.782Z,-4.89
2023-02-09T18:46:01.161Z,-4.94
2023-02-09T18:48:29.136Z,-4.92
2023-02-09T18:50:57.020Z,-4.92
2023-02-09T18:53:26.297Z,-4.90
2023-02-09T18:55:54.640Z,-4.93
2023-02-09T18:58:22.532Z,-4.95
2023-02-09T19:00:50.425Z,-4.82
2023-02-09T19:03:20.066Z,-4.86
2023-02-09T19:05:48.598Z,-5.00
2023-02-09T19:08:17.052Z,-5.06
2023-02-09T19:10:46.323Z,-5.10
2023-02-09T19:13:14.291Z,-5.02
2023-02-09T19:15:42.390Z,-5.08
2023-02-09T19:18:10.719Z,-5.17
2023-02-09T19:20:38.605Z,-5.18
2023-02-09T19:23:07.688Z,-5.24
2023-02-09T19:25:35.606Z,-5.16
2023-02-09T19:28:05.091Z,-5.14
2023-02-09T19:30:33.085Z,-5.29
2023-02-09T19:33:02.079Z,-5.38
2023-02-09T19:35:30.046Z,-5.29
2023-02-09T19:37:59.167Z,-5.31
2023-02-09T19:40:36.190Z,-5.42
2023-02-09T19:43:06.029Z,-5.46
2023-02-09T19:45:37.550Z,-5.46
2023-02-09T19:48:06.227Z,-5.42
2023-02-09T19:50:34.254Z,-5.27
2023-02-09T19:53:02.819Z,-5.00
2023-02-09T19:55:30.856Z,-5.08
2023-02-09T19:57:59.295Z,-5.34
2023-02-09T20:00:28.882Z,-5.39
2023-02-09T20:02:56.772Z,-5.22
2023-02-09T20:05:24.672Z,-5.24
2023-02-09T20:07:53.731Z,-5.40
2023-02-09T20:10:23.929Z,-5.53
2023-02-09T20:12:51.870Z,-5.61
2023-02-09T20:15:19.896Z,-5.66
2023-02-09T20:17:49.198Z,-5.66
2023-02-09T20:20:17.401Z,-5.69
2023-02-09T20:22:45.316Z,-5.73
2023-02-09T20:25:13.560Z,-5.63
2023-02-09T20:27:41.658Z,-5.33
2023-02-09T20:30:10.970Z,-5.48
2023-02-09T20:32:39.122Z,-5.51
2023-02-09T20:35:08.903Z,-5.63
2023-02-09T20:37:36.821Z,-5.82
2023-02-09T20:40:06.021Z,-5.85
2023-02-09T20:42:51.358Z,-5.88
2023-02-09T20:45:36.565Z,-5.94
2023-02-09T20:48:06.226Z,-5.85
2023-02-09T20:50:35.492Z,-5.81
2023-02-09T20:53:03.512Z,-5.98
2023-02-09T20:55:31.515Z,-5.97
2023-02-09T20:57:59.398Z,-6.03
2023-02-09T21:00:27.751Z,-5.58
2023-02-09T21:02:55.700Z,-5.81
2023-02-09T21:05:23.653Z,-5.89
2023-02-09T21:07:52.898Z,-5.94
2023-02-09T21:10:20.842Z,-5.96
2023-02-09T21:12:48.852Z,-5.94
2023-02-09T21:15:17.216Z,-6.06
2023-02-09T21:17:48.447Z,-6.14
2023-02-09T21:20:16.904Z,-6.19
2023-02-09T21:22:44.979Z,-6.20
2023-02-09T21:25:14.842Z,-6.30
2023-02-09T21:27:42.732Z,-6.36
2023-02-09T21:30:11.666Z,-6.35
2023-02-09T21:32:39.819Z,-6.15
2023-02-09T21:35:10.387Z,-6.06
2023-02-09T21:37:38.980Z,-6.12
2023-02-09T21:40:07.571Z,-6.01
2023-02-09T21:42:37.125Z,-5.97
2023-02-09T21:45:06.365Z,-6.09
2023-02-09T21:47:37.664Z,-6.16
2023-02-09T21:50:07.773Z,-6.29
2023-02-09T21:52:35.956Z,-6.35
2023-02-09T21:55:04.101Z,-6.42
2023-02-09T21:57:32.210Z,-6.43
2023-02-09T22:00:05.346Z,-6.23
2023-02-09T22:02:33.367Z,-6.22
2023-02-09T22:05:01.312Z,-6.40
2023-02-09T22:07:29.601Z,-6.49
2023-02-09T22:09:57.471Z,-6.72
2023-02-09T22:12:25.408Z,-6.69
2023-02-09T22:14:53.325Z,-6.76
2023-02-09T22:17:22.577Z,-6.72
2023-02-09T22:19:50.464Z,-6.77
2023-02-09T22:22:18.372Z,-6.69
2023-02-09T22:24:46.301Z,-6.80
2023-02-09T22:27:14.261Z,-6.66
2023-02-09T22:29:42.172Z,-6.63
2023-02-09T22:32:10.107Z,-6.53
2023-02-09T22:34:39.590Z,-6.58
2023-02-09T22:37:07.480Z,-6.66
2023-02-09T22:39:35.504Z,-6.68
2023-02-09T22:42:03.395Z,-6.80
2023-02-09T22:44:32.165Z,-6.85
2023-02-09T22:47:00.064Z,-6.73
2023-02-09T22:49:28.013Z,-6.90
2023-02-09T22:51:57.288Z,-6.87
2023-02-09T22:54:25.230Z,-6.61
2023-02-09T22:56:53.150Z,-6.54
2023-02-09T22:59:21.053Z,-6.61
2023-02-09T23:01:49.109Z,-6.74
2023-02-09T23:04:17.462Z,-6.74
2023-02-09T23:06:45.659Z,-6.74
2023-02-09T23:09:15.776Z,-6.77
2023-02-09T23:11:44.331Z,-6.81
2023-02-09T23:14:12.652Z,-6.76
2023-02-09T23:16:41.623Z,-6.87
2023-02-09T23:19:13.031Z,-6.79
2023-02-09T23:21:42.627Z,-6.77
2023-02-09T23:24:11.224Z,-6.83
2023-02-09T23:26:40.532Z,-6.74
2023-02-09T23:29:10.118Z,-6.84
2023-02-09T23:31:38.177Z,-6.85
2023-02-09T23:34:06.257Z,-6.89
2023-02-09T23:36:35.261Z,-7.02
2023-02-09T23:39:06.133Z,-7.18
2023-02-09T23:41:34.564Z,-7.25
2023-02-09T23:44:04.591Z,-7.20
2023-02-09T23:46:32.592Z,-7.24
2023-02-09T23:49:00.620Z,-7.28
2023-02-09T23:51:30.538Z,-7.20
2023-02-09T23:53:59.986Z,-7.02
2023-02-09T23:56:29.838Z,-7.13
2023-02-09T23:58:57.887Z,-7.16
